createdAt,value
2023-01-28T00:01:36.499Z,100151.91
2023-01-28T00:04:04.306Z,100144.97
2023-01-28T00:06:34.150Z,100146.69
2023-01-28T00:09:03.551Z,100149.41
2023-01-28T00:11:33.688Z,100146.75
2023-01-28T00:14:02.240Z,100150.19
2023-01-28T00:16:30.558Z,100139.72
2023-01-28T00:18:57.879Z,100139.78
2023-01-28T00:21:31.014Z,100149.31
2023-01-28T00:23:59.750Z,100143.25
2023-01-28T00:26:27.229Z,100146.72
2023-01-28T00:28:54.432Z,100144.94
2023-01-28T00:31:27.552Z,100150.25
2023-01-28T00:33:57.386Z,100149.41
2023-01-28T00:36:26.273Z,100149.44
2023-01-28T00:38:57.012Z,100153.69
2023-01-28T00:41:29.903Z,100154.56
2023-01-28T00:43:57.212Z,100158.00
2023-01-28T00:46:26.728Z,100152.91
2023-01-28T00:48:54.216Z,100152.91
2023-01-28T00:51:21.919Z,100152.91
2023-01-28T00:53:50.094Z,100154.66
2023-01-28T00:56:19.792Z,100154.72
2023-01-28T00:58:48.558Z,100152.16
2023-01-28T01:01:25.131Z,100159.06
2023-01-28T01:04:03.019Z,100153.03
2023-01-28T01:06:47.394Z,100149.56
2023-01-28T01:09:16.558Z,100150.44
2023-01-28T01:11:43.960Z,100160.81
2023-01-28T01:14:11.800Z,100160.78
2023-01-28T01:16:39.159Z,100159.88
2023-01-28T01:19:12.630Z,100153.69
2023-01-28T01:21:40.003Z,100159.84
2023-01-28T01:24:07.781Z,100164.22
2023-01-28T01:26:34.875Z,100160.72
2023-01-28T01:29:02.354Z,100157.25
2023-01-28T01:31:29.809Z,100153.78
2023-01-28T01:33:58.269Z,100158.22
2023-01-28T01:36:26.292Z,100169.47
2023-01-28T01:38:55.607Z,100166.84
2023-01-28T01:41:29.942Z,100163.34
2023-01-28T01:44:04.903Z,100162.31
2023-01-28T01:46:40.389Z,100158.88
2023-01-28T01:49:28.977Z,100161.41
2023-01-28T01:52:07.725Z,100164.94
2023-01-28T01:54:37.732Z,100164.09
2023-01-28T01:57:09.451Z,100163.25
2023-01-28T01:59:38.245Z,100162.31
2023-01-28T02:02:08.339Z,100162.28
2023-01-28T02:04:45.308Z,100169.22
2023-01-28T02:07:16.570Z,100164.06
2023-01-28T02:09:44.110Z,100168.38
2023-01-28T02:12:26.344Z,100171.09
2023-01-28T02:15:07.727Z,100173.75
2023-01-28T02:17:36.646Z,100177.28
2023-01-28T02:20:07.906Z,100175.53
2023-01-28T02:23:05.514Z,100183.25
2023-01-28T02:26:03.210Z,100186.78
2023-01-28T02:28:52.293Z,100175.47
2023-01-28T02:31:23.569Z,100189.34
2023-01-28T02:34:05.349Z,100188.38
2023-01-28T02:36:57.167Z,100180.69
2023-01-28T02:39:30.621Z,100189.41
2023-01-28T02:42:06.824Z,100184.13
2023-01-28T02:44:35.100Z,100185.94
2023-01-28T02:47:20.929Z,100180.69
2023-01-28T02:49:52.441Z,100181.56
2023-01-28T02:52:19.914Z,100184.91
2023-01-28T02:55:26.019Z,100186.66
2023-01-28T02:58:07.883Z,100183.13
2023-01-28T03:00:51.055Z,100184.84
2023-01-28T03:03:44.950Z,100194.34
2023-01-28T03:06:15.858Z,100190.97
2023-01-28T03:09:09.433Z,100199.59
2023-01-28T03:12:06.695Z,100200.41
2023-01-28T03:14:56.857Z,100195.22
2023-01-28T03:17:53.127Z,100199.59
2023-01-28T03:20:45.019Z,100204.72
2023-01-28T03:23:36.440Z,100201.25
2023-01-28T03:26:26.387Z,100208.22
2023-01-28T03:29:17.469Z,100191.84
2023-01-28T03:32:03.657Z,100197.06
2023-01-28T03:34:49.372Z,100194.44
2023-01-28T03:37:18.012Z,100202.22
2023-01-28T03:39:45.231Z,100198.75
2023-01-28T03:42:14.983Z,100198.75
2023-01-28T03:44:55.571Z,100193.50
2023-01-28T03:47:30.096Z,100189.28
2023-01-28T03:50:00.118Z,100195.38
2023-01-28T03:52:37.252Z,100199.75
2023-01-28T03:55:14.095Z,100201.44
2023-01-28T03:57:45.091Z,100198.88
2023-01-28T04:00:14.136Z,100195.34
2023-01-28T04:02:41.362Z,100191.88
2023-01-28T04:05:13.392Z,100198.78
2023-01-28T04:07:41.047Z,100197.00
2023-01-28T04:10:09.293Z,100197.88
2023-01-28T04:12:38.139Z,100209.16
2023-01-28T04:15:16.167Z,100210.00
2023-01-28T04:17:50.725Z,100204.81
2023-01-28T04:20:18.590Z,100210.88
2023-01-28T04:22:46.692Z,100206.59
2023-01-28T04:25:16.122Z,100208.41
2023-01-28T04:27:43.726Z,100220.47
2023-01-28T04:30:12.704Z,100217.94
2023-01-28T04:32:40.213Z,100213.66
2023-01-28T04:35:14.088Z,100210.19
2023-01-28T04:37:42.721Z,100212.69
2023-01-28T04:40:11.745Z,100209.16
2023-01-28T04:42:40.017Z,100209.06
2023-01-28T04:45:13.466Z,100220.47
2023-01-28T04:47:42.926Z,100211.69
2023-01-28T04:50:10.532Z,100219.50
2023-01-28T04:52:38.800Z,100219.53
2023-01-28T04:55:08.621Z,100211.66
2023-01-28T04:57:38.272Z,100214.31
2023-01-28T05:00:06.267Z,100223.88
2023-01-28T05:02:33.911Z,100220.34
2023-01-28T05:05:05.074Z,100221.22
2023-01-28T05:07:32.185Z,100234.25
2023-01-28T05:09:59.623Z,100230.84
2023-01-28T05:12:27.145Z,100219.47
2023-01-28T05:14:54.633Z,100233.47
2023-01-28T05:17:22.001Z,100242.97
2023-01-28T05:19:49.526Z,100241.19
2023-01-28T05:22:18.031Z,100235.13
2023-01-28T05:24:45.436Z,100244.75
2023-01-28T05:27:12.868Z,100249.19
2023-01-28T05:29:40.335Z,100254.25
2023-01-28T05:32:07.818Z,100240.44
2023-01-28T05:34:37.358Z,100249.03
2023-01-28T05:37:14.006Z,100249.16
2023-01-28T05:39:53.636Z,100252.50
2023-01-28T05:42:22.844Z,100254.22
2023-01-28T05:44:50.191Z,100259.38
2023-01-28T05:47:19.695Z,100256.78
2023-01-28T05:49:47.105Z,100261.25
2023-01-28T05:52:15.662Z,100258.56
2023-01-28T05:54:42.986Z,100259.44
2023-01-28T05:57:10.484Z,100266.31
2023-01-28T05:59:39.024Z,100264.63
2023-01-28T06:02:08.464Z,100263.81
2023-01-28T06:04:38.076Z,100271.63
2023-01-28T06:07:05.395Z,100268.19
2023-01-28T06:09:32.859Z,100270.84
2023-01-28T06:12:00.276Z,100275.13
2023-01-28T06:14:27.839Z,100268.19
2023-01-28T06:16:55.306Z,100269.09
2023-01-28T06:19:23.790Z,100270.78
2023-01-28T06:21:52.297Z,100271.66
2023-01-28T06:24:20.019Z,100276.81
2023-01-28T06:26:48.260Z,100283.72
2023-01-28T06:29:15.950Z,100277.56
2023-01-28T06:31:49.626Z,100278.34
2023-01-28T06:34:17.432Z,100285.44
2023-01-28T06:36:51.332Z,100285.31
2023-01-28T06:39:22.424Z,100294.06
2023-01-28T06:41:50.777Z,100281.94
2023-01-28T06:44:18.432Z,100292.41
2023-01-28T06:46:51.402Z,100290.59
2023-01-28T06:49:18.859Z,100294.03
2023-01-28T06:51:46.299Z,100300.09
2023-01-28T06:54:15.071Z,100302.75
2023-01-28T06:56:44.625Z,100301.94
2023-01-28T06:59:12.878Z,100301.94
2023-01-28T07:01:41.317Z,100304.56
2023-01-28T07:04:09.135Z,100310.59
2023-01-28T07:06:37.321Z,100313.25
2023-01-28T07:09:06.835Z,100306.47
2023-01-28T07:11:34.272Z,100313.72
2023-01-28T07:14:02.154Z,100315.50
2023-01-28T07:16:30.708Z,100316.16
2023-01-28T07:18:58.156Z,100320.38
2023-01-28T07:21:25.601Z,100328.16
2023-01-28T07:23:53.270Z,100324.72
2023-01-28T07:26:20.474Z,100339.38
2023-01-28T07:28:48.089Z,100337.69
2023-01-28T07:31:16.657Z,100343.75
2023-01-28T07:33:43.892Z,100346.41
2023-01-28T07:36:11.406Z,100339.41
2023-01-28T07:38:39.831Z,100346.38
2023-01-28T07:41:08.664Z,100344.63
2023-01-28T07:43:35.872Z,100349.78
2023-01-28T07:46:15.645Z,100352.41
2023-01-28T07:48:46.052Z,100349.75
2023-01-28T07:51:13.967Z,100352.41
2023-01-28T07:53:41.655Z,100348.16
2023-01-28T07:56:10.945Z,100352.53
2023-01-28T07:58:39.402Z,100362.03
2023-01-28T08:01:06.919Z,100359.47
2023-01-28T08:03:34.669Z,100358.59
2023-01-28T08:06:03.997Z,100364.75
2023-01-28T08:08:31.450Z,100357.84
2023-01-28T08:11:09.045Z,100355.28
2023-01-28T08:13:37.606Z,100363.97
2023-01-28T08:16:06.386Z,100363.09
2023-01-28T08:18:34.040Z,100353.59
2023-01-28T08:21:05.394Z,100362.25
2023-01-28T08:23:34.779Z,100355.28
2023-01-28T08:26:02.055Z,100358.13
2023-01-28T08:28:29.574Z,100361.69
2023-01-28T08:31:00.558Z,100359.19
2023-01-28T08:33:28.182Z,100356.75
2023-01-28T08:35:55.327Z,100355.78
2023-01-28T08:38:23.185Z,100354.06
2023-01-28T08:40:51.395Z,100358.50
2023-01-28T08:43:18.758Z,100364.53
2023-01-28T08:45:46.236Z,100359.25
2023-01-28T08:48:16.803Z,100362.53
2023-01-28T08:50:45.829Z,100363.41
2023-01-28T08:53:19.637Z,100369.41
2023-01-28T08:55:47.825Z,100371.97
2023-01-28T08:58:18.640Z,100370.28
2023-01-28T09:00:48.901Z,100364.19
2023-01-28T09:03:16.513Z,100372.75
2023-01-28T09:05:50.661Z,100377.13
2023-01-28T09:08:18.234Z,100380.69
2023-01-28T09:10:45.723Z,100377.94
2023-01-28T09:13:26.146Z,100379.56
2023-01-28T09:15:53.510Z,100383.94
2023-01-28T09:18:26.932Z,100382.06
2023-01-28T09:20:54.154Z,100389.97
2023-01-28T09:23:21.374Z,100389.88
2023-01-28T09:25:48.768Z,100387.31
2023-01-28T09:28:16.297Z,100389.13
2023-01-28T09:30:43.693Z,100394.41
2023-01-28T09:33:12.129Z,100387.41
2023-01-28T09:35:39.656Z,100397.84
2023-01-28T09:38:08.259Z,100390.94
2023-01-28T09:40:43.055Z,100394.47
2023-01-28T09:43:10.122Z,100403.13
2023-01-28T09:45:43.053Z,100389.97
2023-01-28T09:48:18.938Z,100395.28
2023-01-28T09:50:50.693Z,100392.66
2023-01-28T09:53:24.075Z,100395.28
2023-01-28T09:55:52.413Z,100404.00
2023-01-28T09:58:19.874Z,100397.91
2023-01-28T10:01:24.600Z,100399.66
2023-01-28T10:04:14.042Z,100394.41
2023-01-28T10:06:46.987Z,100393.66
2023-01-28T10:09:34.854Z,100400.47
2023-01-28T10:12:28.717Z,100392.66
2023-01-28T10:15:17.316Z,100389.84
2023-01-28T10:17:48.516Z,100395.09
2023-01-28T10:20:29.059Z,100391.66
2023-01-28T10:23:12.441Z,100391.69
2023-01-28T10:25:45.331Z,100396.81
2023-01-28T10:28:21.561Z,100393.44
2023-01-28T10:30:50.380Z,100392.53
2023-01-28T10:33:38.081Z,100392.56
2023-01-28T10:36:06.246Z,100390.88
2023-01-28T10:38:34.026Z,100390.00
2023-01-28T10:41:03.621Z,100390.72
2023-01-28T10:43:35.836Z,100406.28
2023-01-28T10:46:13.466Z,100400.34
2023-01-28T10:48:55.393Z,100395.16
2023-01-28T10:51:41.167Z,100389.91
2023-01-28T10:54:34.878Z,100401.28
2023-01-28T10:57:16.887Z,100400.50
2023-01-28T10:59:44.754Z,100395.31
2023-01-28T11:02:37.308Z,100396.19
2023-01-28T11:05:33.970Z,100402.09
2023-01-28T11:08:15.265Z,100397.78
2023-01-28T11:10:44.241Z,100396.97
2023-01-28T11:13:26.123Z,100396.06
2023-01-28T11:16:01.382Z,100400.47
2023-01-28T11:18:32.287Z,100390.97
2023-01-28T11:21:14.882Z,100386.50
2023-01-28T11:24:27.699Z,100385.53
2023-01-28T11:26:58.052Z,100389.84
2023-01-28T11:29:30.258Z,100384.63
2023-01-28T11:31:57.776Z,100384.63
2023-01-28T11:34:33.661Z,100384.75
2023-01-28T11:37:13.846Z,100390.88
2023-01-28T11:39:41.279Z,100381.34
2023-01-28T11:42:19.513Z,100390.09
2023-01-28T11:44:48.651Z,100386.53
2023-01-28T11:47:42.220Z,100390.03
2023-01-28T11:51:02.959Z,100389.16
2023-01-28T11:53:51.981Z,100392.72
2023-01-28T11:56:32.068Z,100386.44
2023-01-28T11:59:27.166Z,100391.53
2023-01-28T12:02:22.559Z,100388.88
2023-01-28T12:05:29.225Z,100388.88
2023-01-28T12:08:20.771Z,100397.47
2023-01-28T12:11:08.121Z,100394.88
2023-01-28T12:14:10.803Z,100389.66
2023-01-28T12:17:30.786Z,100388.84
2023-01-28T12:20:28.344Z,100394.88
2023-01-28T12:23:22.167Z,100385.41
2023-01-28T12:26:03.409Z,100394.13
2023-01-28T12:29:13.507Z,100388.06
2023-01-28T12:32:18.752Z,100392.53
2023-01-28T12:35:04.272Z,100387.09
2023-01-28T12:37:53.711Z,100389.66
2023-01-28T12:40:44.350Z,100382.69
2023-01-28T12:43:15.366Z,100384.50
2023-01-28T12:46:09.900Z,100391.50
2023-01-28T12:48:54.622Z,100392.44
2023-01-28T12:51:29.380Z,100394.19
2023-01-28T12:54:22.783Z,100388.19
2023-01-28T12:56:55.639Z,100382.91
2023-01-28T12:59:42.845Z,100389.78
2023-01-28T13:02:12.838Z,100389.84
2023-01-28T13:04:50.508Z,100393.19
2023-01-28T13:07:36.441Z,100396.69
2023-01-28T13:10:22.961Z,100391.53
2023-01-28T13:12:50.820Z,100390.66
2023-01-28T13:15:21.269Z,100395.03
2023-01-28T13:18:34.754Z,100408.13
2023-01-28T13:21:06.441Z,100408.06
2023-01-28T13:23:52.073Z,100402.09
2023-01-28T13:26:19.537Z,100398.63
2023-01-28T13:28:52.432Z,100406.41
2023-01-28T13:31:23.245Z,100402.16
2023-01-28T13:33:56.940Z,100402.94
2023-01-28T13:36:49.055Z,100405.50
2023-01-28T13:39:24.361Z,100408.88
2023-01-28T13:41:56.098Z,100406.28
2023-01-28T13:44:26.607Z,100410.59
2023-01-28T13:46:58.293Z,100405.34
2023-01-28T13:49:48.269Z,100404.41
2023-01-28T13:52:26.648Z,100408.72
2023-01-28T13:55:12.041Z,100411.25
2023-01-28T13:58:25.881Z,100412.94
2023-01-28T14:00:55.885Z,100416.31
2023-01-28T14:03:54.447Z,100418.06
2023-01-28T14:06:33.859Z,100420.69
2023-01-28T14:09:29.969Z,100420.66
2023-01-28T14:12:24.600Z,100418.06
2023-01-28T14:15:08.241Z,100424.13
2023-01-28T14:17:42.700Z,100426.72
2023-01-28T14:20:42.637Z,100433.72
2023-01-28T14:23:22.384Z,100437.13
2023-01-28T14:26:02.136Z,100431.13
2023-01-28T14:28:35.737Z,100434.56
2023-01-28T14:31:18.709Z,100438.09
2023-01-28T14:33:47.229Z,100444.09
2023-01-28T14:36:15.035Z,100436.22
2023-01-28T14:38:45.539Z,100434.44
2023-01-28T14:41:23.927Z,100438.72
2023-01-28T14:43:58.827Z,100438.75
2023-01-28T14:46:50.428Z,100438.78
2023-01-28T14:49:41.122Z,100438.72
2023-01-28T14:53:03.808Z,100429.22
2023-01-28T14:55:33.949Z,100441.31
2023-01-28T14:58:07.255Z,100443.75
2023-01-28T15:00:35.692Z,100441.19
2023-01-28T15:03:24.891Z,100449.00
2023-01-28T15:06:14.864Z,100455.88
2023-01-28T15:08:42.406Z,100453.28
2023-01-28T15:11:13.817Z,100456.72
2023-01-28T15:13:45.567Z,100454.97
2023-01-28T15:16:24.138Z,100469.69
2023-01-28T15:18:53.041Z,100462.81
2023-01-28T15:21:26.305Z,100465.41
2023-01-28T15:23:58.775Z,100471.44
2023-01-28T15:26:29.249Z,100473.91
2023-01-28T15:28:57.631Z,100475.59
2023-01-28T15:31:29.386Z,100471.19
2023-01-28T15:34:16.986Z,100482.44
2023-01-28T15:36:45.617Z,100481.56
2023-01-28T15:39:24.216Z,100479.06
2023-01-28T15:41:59.511Z,100487.69
2023-01-28T15:44:35.169Z,100489.47
2023-01-28T15:47:13.911Z,100481.69
2023-01-28T15:49:45.764Z,100493.75
2023-01-28T15:52:13.610Z,100488.53
2023-01-28T15:54:49.147Z,100492.06
2023-01-28T15:57:21.169Z,100496.28
2023-01-28T15:59:51.535Z,100501.47
2023-01-28T16:02:21.740Z,100509.34
2023-01-28T16:05:03.612Z,100513.69
2023-01-28T16:07:33.247Z,100511.88
2023-01-28T16:10:03.780Z,100515.41
2023-01-28T16:12:31.028Z,100511.88
2023-01-28T16:15:04.480Z,100518.72
2023-01-28T16:17:40.485Z,100527.41
2023-01-28T16:20:20.199Z,100520.47
2023-01-28T16:22:48.511Z,100522.16
2023-01-28T16:25:26.039Z,100525.56
2023-01-28T16:27:54.151Z,100522.81
2023-01-28T16:30:22.744Z,100526.22
2023-01-28T16:32:50.400Z,100534.00
2023-01-28T16:36:04.668Z,100518.28
2023-01-28T16:38:31.423Z,100519.94
2023-01-28T16:40:59.552Z,100525.94
2023-01-28T16:43:26.978Z,100519.94
2023-01-28T16:46:01.200Z,100537.16
2023-01-28T16:48:30.832Z,100529.34
2023-01-28T16:50:58.405Z,100537.06
2023-01-28T16:53:35.280Z,100527.41
2023-01-28T16:56:02.948Z,100536.13
2023-01-28T16:58:30.805Z,100538.69
2023-01-28T17:00:58.265Z,100536.03
2023-01-28T17:03:26.163Z,100544.56
2023-01-28T17:05:54.301Z,100541.22
2023-01-28T17:08:23.104Z,100537.78
2023-01-28T17:10:57.112Z,100543.84
2023-01-28T17:13:24.397Z,100545.34
2023-01-28T17:15:53.208Z,100551.31
2023-01-28T17:18:20.993Z,100551.34
2023-01-28T17:20:48.600Z,100566.91
2023-01-28T17:23:16.949Z,100569.59
2023-01-28T17:25:44.245Z,100571.31
2023-01-28T17:28:11.767Z,100563.50
2023-01-28T17:30:41.637Z,100562.59
2023-01-28T17:33:09.873Z,100570.38
2023-01-28T17:35:37.860Z,100565.94
2023-01-28T17:38:06.449Z,100571.97
2023-01-28T17:40:34.440Z,100581.56
2023-01-28T17:43:02.719Z,100573.78
2023-01-28T17:45:34.060Z,100586.72
2023-01-28T17:48:03.298Z,100590.22
2023-01-28T17:50:32.061Z,100584.13
2023-01-28T17:52:59.804Z,100576.28
2023-01-28T17:55:30.402Z,100593.50
2023-01-28T17:57:58.791Z,100589.13
2023-01-28T18:00:27.339Z,100589.97
2023-01-28T18:02:54.941Z,100592.56
2023-01-28T18:05:22.682Z,100589.09
2023-01-28T18:07:52.437Z,100592.63
2023-01-28T18:10:20.480Z,100588.34
2023-01-28T18:12:48.011Z,100585.81
2023-01-28T18:15:15.982Z,100591.84
2023-01-28T18:17:43.734Z,100589.31
2023-01-28T18:20:12.078Z,100591.94
2023-01-28T18:22:39.435Z,100595.41
2023-01-28T18:25:07.700Z,100605.00
2023-01-28T18:27:35.830Z,100604.03
2023-01-28T18:30:05.832Z,100605.72
2023-01-28T18:32:35.411Z,100614.03
2023-01-28T18:35:03.012Z,100615.03
2023-01-28T18:37:30.584Z,100607.09
2023-01-28T18:39:57.966Z,100612.22
2023-01-28T18:42:25.445Z,100608.66
2023-01-28T18:44:53.413Z,100603.41
2023-01-28T18:47:20.775Z,100608.59
2023-01-28T18:49:50.368Z,100612.13
2023-01-28T18:52:19.158Z,100613.09
2023-01-28T18:54:46.507Z,100615.66
2023-01-28T18:57:15.082Z,100623.47
2023-01-28T18:59:42.856Z,100616.56
2023-01-28T19:02:14.303Z,100613.09
2023-01-28T19:04:42.182Z,100616.25
2023-01-28T19:07:11.929Z,100619.13
2023-01-28T19:09:39.858Z,100606.00
2023-01-28T19:12:07.511Z,100606.59
2023-01-28T19:14:37.937Z,100613.31
2023-01-28T19:17:06.711Z,100617.69
2023-01-28T19:19:34.664Z,100617.75
2023-01-28T19:22:02.891Z,100625.44
2023-01-28T19:24:30.833Z,100628.97
2023-01-28T19:27:11.089Z,100628.06
2023-01-28T19:29:38.903Z,100629.69
2023-01-28T19:32:06.940Z,100633.25
2023-01-28T19:34:35.173Z,100630.66
2023-01-28T19:37:05.180Z,100630.66
2023-01-28T19:39:33.407Z,100629.84
2023-01-28T19:42:02.978Z,100630.72
2023-01-28T19:44:31.025Z,100618.59
2023-01-28T19:46:58.986Z,100623.81
2023-01-28T19:49:29.995Z,100640.09
2023-01-28T19:52:01.004Z,100642.72
2023-01-28T19:54:36.486Z,100647.00
2023-01-28T19:57:06.857Z,100655.44
2023-01-28T19:59:35.490Z,100643.03
2023-01-28T20:02:06.107Z,100649.88
2023-01-28T20:04:38.217Z,100653.44
2023-01-28T20:07:07.062Z,100658.59
2023-01-28T20:09:35.812Z,100661.09
2023-01-28T20:12:04.904Z,100654.25
2023-01-28T20:14:39.526Z,100663.03
2023-01-28T20:17:08.471Z,100669.44
2023-01-28T20:19:43.633Z,100676.44
2023-01-28T20:22:11.424Z,100689.53
2023-01-28T20:24:41.705Z,100685.81
2023-01-28T20:27:10.336Z,100678.00
2023-01-28T20:29:38.020Z,100684.75
2023-01-28T20:32:16.535Z,100699.69
2023-01-28T20:34:47.351Z,100691.75
2023-01-28T20:37:18.097Z,100694.16
2023-01-28T20:39:46.816Z,100700.09
2023-01-28T20:42:16.969Z,100691.22
2023-01-28T20:44:44.806Z,100690.56
2023-01-28T20:47:12.668Z,100707.09
2023-01-28T20:49:40.506Z,100710.47
2023-01-28T20:52:09.973Z,100721.53
2023-01-28T20:54:38.090Z,100710.25
2023-01-28T20:57:05.634Z,100714.56
2023-01-28T20:59:33.208Z,100721.56
2023-01-28T21:02:01.942Z,100720.59
2023-01-28T21:04:29.789Z,100707.63
2023-01-28T21:06:57.359Z,100700.72
2023-01-28T21:09:38.003Z,100699.75
2023-01-28T21:12:05.886Z,100714.31
2023-01-28T21:14:33.897Z,100696.06
2023-01-28T21:17:04.432Z,100702.31
2023-01-28T21:19:33.567Z,100703.25
2023-01-28T21:22:01.590Z,100706.13
2023-01-28T21:24:29.223Z,100693.97
2023-01-28T21:26:56.643Z,100703.31
2023-01-28T21:29:24.010Z,100701.69
2023-01-28T21:31:51.524Z,100704.97
2023-01-28T21:34:19.535Z,100716.84
2023-01-28T21:36:48.309Z,100724.56
2023-01-28T21:39:18.148Z,100717.78
2023-01-28T21:41:48.196Z,100717.84
2023-01-28T21:44:15.519Z,100716.16
2023-01-28T21:46:46.494Z,100723.16
2023-01-28T21:49:14.288Z,100718.78
2023-01-28T21:51:47.621Z,100717.97
2023-01-28T21:54:18.199Z,100720.63
2023-01-28T21:56:48.467Z,100713.78
2023-01-28T21:59:29.250Z,100727.72
2023-01-28T22:02:04.475Z,100734.75
2023-01-28T22:04:37.436Z,100726.97
2023-01-28T22:07:06.974Z,100731.25
2023-01-28T22:09:35.672Z,100736.34
2023-01-28T22:12:05.360Z,100734.69
2023-01-28T22:14:33.211Z,100737.09
2023-01-28T22:17:00.754Z,100731.94
2023-01-28T22:19:28.056Z,100726.66
2023-01-28T22:21:55.597Z,100732.78
2023-01-28T22:24:27.356Z,100734.44
2023-01-28T22:26:57.585Z,100731.75
2023-01-28T22:29:25.551Z,100730.84
2023-01-28T22:31:54.094Z,100733.53
2023-01-28T22:34:22.367Z,100730.00
2023-01-28T22:36:52.205Z,100723.06
2023-01-28T22:39:21.620Z,100724.66
2023-01-28T22:41:49.064Z,100712.03
2023-01-28T22:44:16.511Z,100705.00
2023-01-28T22:46:43.921Z,100705.78
2023-01-28T22:49:15.387Z,100717.16
2023-01-28T22:51:43.294Z,100712.94
2023-01-28T22:54:15.164Z,100712.88
2023-01-28T22:56:42.673Z,100705.25
2023-01-28T22:59:16.062Z,100700.94
2023-01-28T23:01:43.499Z,100702.38
2023-01-28T23:04:11.179Z,100699.72
2023-01-28T23:06:39.024Z,100693.09
2023-01-28T23:09:06.773Z,100700.31
2023-01-28T23:11:34.381Z,100697.56
2023-01-28T23:14:22.072Z,100701.72
2023-01-28T23:17:13.373Z,100688.78
2023-01-28T23:19:59.393Z,100694.03
2023-01-28T23:22:52.758Z,100691.19
2023-01-28T23:25:20.678Z,100684.34
2023-01-28T23:27:48.157Z,100695.41
2023-01-28T23:30:16.085Z,100692.91
2023-01-28T23:32:47.616Z,100683.41
2023-01-28T23:35:15.802Z,100682.75
2023-01-28T23:37:43.191Z,100692.28
2023-01-28T23:40:24.772Z,100683.06
2023-01-28T23:42:54.322Z,100689.78
2023-01-28T23:45:22.759Z,100685.91
2023-01-28T23:47:50.320Z,100691.94
2023-01-28T23:50:19.366Z,100689.25
2023-01-28T23:52:46.823Z,100686.09
2023-01-28T23:55:14.215Z,100691.00
2023-01-28T23:57:42.089Z,100682.31
